sensor_id;sensor_type;location;lat;lon;timestamp;temperature;humidity
26326;DHT22;14032;52.510;7.342;2022-11-15T00:00:05;7.80;99.90
26326;DHT22;14032;52.510;7.342;2022-11-15T00:02:31;7.80;99.90
26326;DHT22;14032;52.510;7.342;2022-11-15T00:04:56;7.80;99.90
26326;DHT22;14032;52.510;7.342;2022-11-15T00:07:22;7.80;99.90
26326;DHT22;14032;52.510;7.342;2022-11-15T00:09:47;7.80;99.90
26326;DHT22;14032;52.510;7.342;2022-11-15T00:12:13;7.80;99.90
26326;DHT22;14032;52.510;7.342;2022-11-15T00:14:38;7.80;99.90
26326;DHT22;14032;52.510;7.342;2022-11-15T00:17:04;7.80;99.90
26326;DHT22;14032;52.510;7.342;2022-11-15T00:19:29;7.80;99.90
26326;DHT22;14032;52.510;7.342;2022-11-15T00:21:55;7.80;99.90
26326;DHT22;14032;52.510;7.342;2022-11-15T00:24:20;7.80;99.90
26326;DHT22;14032;52.510;7.342;2022-11-15T00:26:46;7.80;99.90
26326;DHT22;14032;52.510;7.342;2022-11-15T00:29:12;7.80;99.90
26326;DHT22;14032;52.510;7.342;2022-11-15T00:31:37;7.80;99.90
26326;DHT22;14032;52.510;7.342;2022-11-15T00:34:03;7.80;99.90
26326;DHT22;14032;52.510;7.342;2022-11-15T00:36:28;7.80;99.90
26326;DHT22;14032;52.510;7.342;2022-11-15T00:38:54;7.90;99.90
26326;DHT22;14032;52.510;7.342;2022-11-15T00:41:19;7.90;99.90
26326;DHT22;14032;52.510;7.342;2022-11-15T00:43:45;7.90;99.90
26326;DHT22;14032;52.510;7.342;2022-11-15T00:46:10;7.90;99.90
26326;DHT22;14032;52.510;7.342;2022-11-15T00:48:36;7.90;99.90
26326;DHT22;14032;52.510;7.342;2022-11-15T00:51:02;7.90;99.90
26326;DHT22;14032;52.510;7.342;2022-11-15T00:53:28;7.90;99.90
26326;DHT22;14032;52.510;7.342;2022-11-15T00:55:53;8.00;99.90
26326;DHT22;14032;52.510;7.342;2022-11-15T00:58:19;8.00;99.90
26326;DHT22;14032;52.510;7.342;2022-11-15T01:00:45;8.00;99.90
26326;DHT22;14032;52.510;7.342;2022-11-15T01:03:10;8.00;99.90
26326;DHT22;14032;52.510;7.342;2022-11-15T01:05:39;8.00;99.90
26326;DHT22;14032;52.510;7.342;2022-11-15T01:08:04;8.00;99.90
26326;DHT22;14032;52.510;7.342;2022-11-15T01:10:30;8.00;99.90
26326;DHT22;14032;52.510;7.342;2022-11-15T01:12:56;7.90;99.90
26326;DHT22;14032;52.510;7.342;2022-11-15T01:15:22;7.90;99.90
26326;DHT22;14032;52.510;7.342;2022-11-15T01:17:48;7.90;99.90
26326;DHT22;14032;52.510;7.342;2022-11-15T01:20:13;7.90;99.90
26326;DHT22;14032;52.510;7.342;2022-11-15T01:22:39;7.90;99.90
26326;DHT22;14032;52.510;7.342;2022-11-15T01:25:04;7.90;99.90
26326;DHT22;14032;52.510;7.342;2022-11-15T01:27:30;7.90;99.90
26326;DHT22;14032;52.510;7.342;2022-11-15T01:29:56;7.90;99.90
26326;DHT22;14032;52.510;7.342;2022-11-15T01:32:23;7.90;99.90
26326;DHT22;14032;52.510;7.342;2022-11-15T01:34:48;7.90;99.90
26326;DHT22;14032;52.510;7.342;2022-11-15T01:37:14;7.90;99.90
26326;DHT22;14032;52.510;7.342;2022-11-15T01:39:39;7.90;99.90
26326;DHT22;14032;52.510;7.342;2022-11-15T01:42:05;7.90;99.90
26326;DHT22;14032;52.510;7.342;2022-11-15T01:46:57;8.00;99.90
26326;DHT22;14032;52.510;7.342;2022-11-15T01:49:24;8.00;99.90
26326;DHT22;14032;52.510;7.342;2022-11-15T01:51:51;8.00;99.90
26326;DHT22;14032;52.510;7.342;2022-11-15T01:54:19;8.00;99.90
26326;DHT22;14032;52.510;7.342;2022-11-15T01:57:04;8.00;99.90
26326;DHT22;14032;52.510;7.342;2022-11-15T01:59:32;8.00;99.90
26326;DHT22;14032;52.510;7.342;2022-11-15T02:01:58;8.00;99.90
26326;DHT22;14032;52.510;7.342;2022-11-15T02:04:32;8.00;99.90
26326;DHT22;14032;52.510;7.342;2022-11-15T02:06:59;8.00;99.90
26326;DHT22;14032;52.510;7.342;2022-11-15T02:09:27;8.00;99.90
26326;DHT22;14032;52.510;7.342;2022-11-15T02:11:54;8.00;99.90
26326;DHT22;14032;52.510;7.342;2022-11-15T02:14:21;8.10;99.90
26326;DHT22;14032;52.510;7.342;2022-11-15T02:23:04;8.10;99.90
26326;DHT22;14032;52.510;7.342;2022-11-15T02:28:29;8.20;99.90
26326;DHT22;14032;52.510;7.342;2022-11-15T02:33:51;8.20;99.90
26326;DHT22;14032;52.510;7.342;2022-11-15T02:36:23;8.30;99.90
26326;DHT22;14032;52.510;7.342;2022-11-15T02:39:02;8.30;99.90
26326;DHT22;14032;52.510;7.342;2022-11-15T02:41:46;8.30;99.90
26326;DHT22;14032;52.510;7.342;2022-11-15T02:44:24;8.30;99.90
26326;DHT22;14032;52.510;7.342;2022-11-15T02:46:54;8.30;99.90
26326;DHT22;14032;52.510;7.342;2022-11-15T02:49:47;8.30;99.90
26326;DHT22;14032;52.510;7.342;2022-11-15T02:52:15;8.30;99.90
26326;DHT22;14032;52.510;7.342;2022-11-15T02:54:41;8.30;99.90
26326;DHT22;14032;52.510;7.342;2022-11-15T02:57:14;8.40;99.90
26326;DHT22;14032;52.510;7.342;2022-11-15T02:59:51;8.40;99.90
26326;DHT22;14032;52.510;7.342;2022-11-15T03:02:31;8.40;99.90
26326;DHT22;14032;52.510;7.342;2022-11-15T03:13:37;8.40;99.90
26326;DHT22;14032;52.510;7.342;2022-11-15T03:16:36;8.40;99.90
26326;DHT22;14032;52.510;7.342;2022-11-15T03:19:26;8.40;99.90
26326;DHT22;14032;52.510;7.342;2022-11-15T03:21:56;8.50;99.90
26326;DHT22;14032;52.510;7.342;2022-11-15T03:24:23;8.50;99.90
26326;DHT22;14032;52.510;7.342;2022-11-15T03:26:52;8.50;99.90
26326;DHT22;14032;52.510;7.342;2022-11-15T03:29:27;8.50;99.90
26326;DHT22;14032;52.510;7.342;2022-11-15T03:32:21;8.50;99.90
26326;DHT22;14032;52.510;7.342;2022-11-15T03:37:22;8.50;99.90
26326;DHT22;14032;52.510;7.342;2022-11-15T03:39:50;8.50;99.90
26326;DHT22;14032;52.510;7.342;2022-11-15T03:45:15;8.60;99.90
26326;DHT22;14032;52.510;7.342;2022-11-15T03:47:51;8.60;99.90
26326;DHT22;14032;52.510;7.342;2022-11-15T03:50:20;8.70;99.90
26326;DHT22;14032;52.510;7.342;2022-11-15T03:52:48;8.70;99.90
26326;DHT22;14032;52.510;7.342;2022-11-15T03:55:19;8.70;99.90
26326;DHT22;14032;52.510;7.342;2022-11-15T03:57:48;8.70;99.90
26326;DHT22;14032;52.510;7.342;2022-11-15T04:00:14;8.70;99.90
26326;DHT22;14032;52.510;7.342;2022-11-15T04:02:40;8.70;99.90
26326;DHT22;14032;52.510;7.342;2022-11-15T04:05:06;8.80;99.90
26326;DHT22;14032;52.510;7.342;2022-11-15T04:07:32;8.70;99.90
26326;DHT22;14032;52.510;7.342;2022-11-15T04:09:57;8.70;99.90
26326;DHT22;14032;52.510;7.342;2022-11-15T04:12:34;8.80;99.90
26326;DHT22;14032;52.510;7.342;2022-11-15T04:15:04;8.80;99.90
26326;DHT22;14032;52.510;7.342;2022-11-15T04:17:34;8.80;99.90
26326;DHT22;14032;52.510;7.342;2022-11-15T04:20:00;8.80;99.90
26326;DHT22;14032;52.510;7.342;2022-11-15T04:22:45;8.80;99.90
26326;DHT22;14032;52.510;7.342;2022-11-15T04:25:29;8.90;99.90
26326;DHT22;14032;52.510;7.342;2022-11-15T04:27:54;8.90;99.90
26326;DHT22;14032;52.510;7.342;2022-11-15T04:30:20;8.90;99.90
26326;DHT22;14032;52.510;7.342;2022-11-15T04:32:45;8.90;99.90
26326;DHT22;14032;52.510;7.342;2022-11-15T04:35:11;9.00;99.90
26326;DHT22;14032;52.510;7.342;2022-11-15T04:37:37;9.00;99.90
26326;DHT22;14032;52.510;7.342;2022-11-15T04:40:03;9.00;99.90
26326;DHT22;14032;52.510;7.342;2022-11-15T04:42:28;9.00;99.90
26326;DHT22;14032;52.510;7.342;2022-11-15T04:44:54;9.00;99.90
26326;DHT22;14032;52.510;7.342;2022-11-15T04:47:19;9.00;99.90
26326;DHT22;14032;52.510;7.342;2022-11-15T04:49:45;9.00;99.90
26326;DHT22;14032;52.510;7.342;2022-11-15T04:52:11;9.10;99.90
26326;DHT22;14032;52.510;7.342;2022-11-15T04:54:36;9.10;99.90
26326;DHT22;14032;52.510;7.342;2022-11-15T04:57:02;9.10;99.90
26326;DHT22;14032;52.510;7.342;2022-11-15T04:59:27;9.10;99.90
26326;DHT22;14032;52.510;7.342;2022-11-15T05:01:53;9.10;99.90
26326;DHT22;14032;52.510;7.342;2022-11-15T05:04:18;9.20;99.90
26326;DHT22;14032;52.510;7.342;2022-11-15T05:06:44;9.20;99.90
26326;DHT22;14032;52.510;7.342;2022-11-15T05:09:10;9.20;99.90
26326;DHT22;14032;52.510;7.342;2022-11-15T05:11:36;9.30;99.90
26326;DHT22;14032;52.510;7.342;2022-11-15T05:14:01;9.30;99.90
26326;DHT22;14032;52.510;7.342;2022-11-15T05:16:27;9.30;99.90
26326;DHT22;14032;52.510;7.342;2022-11-15T05:18:53;9.30;99.90
26326;DHT22;14032;52.510;7.342;2022-11-15T05:21:19;9.40;99.90
26326;DHT22;14032;52.510;7.342;2022-11-15T05:23:46;9.40;99.90
26326;DHT22;14032;52.510;7.342;2022-11-15T05:26:12;9.40;99.90
26326;DHT22;14032;52.510;7.342;2022-11-15T05:28:38;9.40;99.90
26326;DHT22;14032;52.510;7.342;2022-11-15T05:31:05;9.40;99.90
26326;DHT22;14032;52.510;7.342;2022-11-15T05:33:32;9.40;99.90
26326;DHT22;14032;52.510;7.342;2022-11-15T05:36:02;9.40;99.90
26326;DHT22;14032;52.510;7.342;2022-11-15T05:38:29;9.50;99.90
26326;DHT22;14032;52.510;7.342;2022-11-15T05:40:55;9.40;99.90
26326;DHT22;14032;52.510;7.342;2022-11-15T05:43:21;9.50;99.90
26326;DHT22;14032;52.510;7.342;2022-11-15T05:45:47;9.50;99.90
26326;DHT22;14032;52.510;7.342;2022-11-15T05:48:13;9.50;99.90
26326;DHT22;14032;52.510;7.342;2022-11-15T05:50:41;9.60;99.90
26326;DHT22;14032;52.510;7.342;2022-11-15T05:53:07;9.50;99.90
26326;DHT22;14032;52.510;7.342;2022-11-15T05:55:33;9.60;99.90
26326;DHT22;14032;52.510;7.342;2022-11-15T05:58:00;9.60;99.90
26326;DHT22;14032;52.510;7.342;2022-11-15T06:00:26;9.70;99.90
26326;DHT22;14032;52.510;7.342;2022-11-15T06:02:51;9.80;99.90
26326;DHT22;14032;52.510;7.342;2022-11-15T06:05:17;9.80;99.90
26326;DHT22;14032;52.510;7.342;2022-11-15T06:07:43;9.80;99.90
26326;DHT22;14032;52.510;7.342;2022-11-15T06:10:09;9.80;99.90
26326;DHT22;14032;52.510;7.342;2022-11-15T06:12:35;9.80;99.90
26326;DHT22;14032;52.510;7.342;2022-11-15T06:15:00;9.80;99.90
26326;DHT22;14032;52.510;7.342;2022-11-15T06:17:26;9.80;99.90
26326;DHT22;14032;52.510;7.342;2022-11-15T06:19:52;9.80;99.90
26326;DHT22;14032;52.510;7.342;2022-11-15T06:22:17;9.80;99.90
26326;DHT22;14032;52.510;7.342;2022-11-15T06:24:43;9.70;99.90
26326;DHT22;14032;52.510;7.342;2022-11-15T06:27:10;9.80;99.90
26326;DHT22;14032;52.510;7.342;2022-11-15T06:29:36;9.80;99.90
26326;DHT22;14032;52.510;7.342;2022-11-15T06:32:02;9.80;99.90
26326;DHT22;14032;52.510;7.342;2022-11-15T06:34:27;9.80;99.90
26326;DHT22;14032;52.510;7.342;2022-11-15T06:36:53;9.80;99.90
26326;DHT22;14032;52.510;7.342;2022-11-15T06:39:18;9.80;99.90
26326;DHT22;14032;52.510;7.342;2022-11-15T06:41:44;9.80;99.90
26326;DHT22;14032;52.510;7.342;2022-11-15T06:44:10;9.90;99.90
26326;DHT22;14032;52.510;7.342;2022-11-15T06:46:35;9.90;99.90
26326;DHT22;14032;52.510;7.342;2022-11-15T06:49:01;9.90;99.90
26326;DHT22;14032;52.510;7.342;2022-11-15T06:51:26;9.90;99.90
26326;DHT22;14032;52.510;7.342;2022-11-15T06:53:52;10.00;99.90
26326;DHT22;14032;52.510;7.342;2022-11-15T06:56:17;10.00;99.90
26326;DHT22;14032;52.510;7.342;2022-11-15T06:58:43;10.00;99.90
26326;DHT22;14032;52.510;7.342;2022-11-15T07:01:11;10.00;99.90
26326;DHT22;14032;52.510;7.342;2022-11-15T07:03:38;10.00;99.90
26326;DHT22;14032;52.510;7.342;2022-11-15T07:06:04;9.90;99.90
26326;DHT22;14032;52.510;7.342;2022-11-15T07:08:30;9.90;99.90
26326;DHT22;14032;52.510;7.342;2022-11-15T07:11:01;9.90;99.90
26326;DHT22;14032;52.510;7.342;2022-11-15T07:13:28;10.00;99.90
26326;DHT22;14032;52.510;7.342;2022-11-15T07:15:54;9.90;99.90
26326;DHT22;14032;52.510;7.342;2022-11-15T07:18:20;10.00;99.90
26326;DHT22;14032;52.510;7.342;2022-11-15T07:20:46;10.00;99.90
26326;DHT22;14032;52.510;7.342;2022-11-15T07:23:12;10.10;99.90
26326;DHT22;14032;52.510;7.342;2022-11-15T07:25:37;10.00;99.90
26326;DHT22;14032;52.510;7.342;2022-11-15T07:28:03;10.10;99.90
26326;DHT22;14032;52.510;7.342;2022-11-15T07:30:29;10.10;99.90
26326;DHT22;14032;52.510;7.342;2022-11-15T07:32:59;10.10;99.90
26326;DHT22;14032;52.510;7.342;2022-11-15T07:35:26;10.10;99.90
26326;DHT22;14032;52.510;7.342;2022-11-15T07:38:00;10.10;99.90
26326;DHT22;14032;52.510;7.342;2022-11-15T07:40:28;10.20;99.90
26326;DHT22;14032;52.510;7.342;2022-11-15T07:43:08;10.30;99.90
26326;DHT22;14032;52.510;7.342;2022-11-15T07:45:39;10.30;99.90
26326;DHT22;14032;52.510;7.342;2022-11-15T07:48:05;10.30;99.90
26326;DHT22;14032;52.510;7.342;2022-11-15T07:50:31;10.30;99.90
26326;DHT22;14032;52.510;7.342;2022-11-15T07:52:58;10.40;99.90
26326;DHT22;14032;52.510;7.342;2022-11-15T07:55:25;10.40;99.90
26326;DHT22;14032;52.510;7.342;2022-11-15T07:57:52;10.40;99.90
26326;DHT22;14032;52.510;7.342;2022-11-15T08:00:18;10.40;99.90
26326;DHT22;14032;52.510;7.342;2022-11-15T08:02:44;10.40;99.90
26326;DHT22;14032;52.510;7.342;2022-11-15T08:05:10;10.40;99.90
26326;DHT22;14032;52.510;7.342;2022-11-15T08:07:36;10.40;99.90
26326;DHT22;14032;52.510;7.342;2022-11-15T08:10:03;10.40;99.90
26326;DHT22;14032;52.510;7.342;2022-11-15T08:12:31;10.40;99.90
26326;DHT22;14032;52.510;7.342;2022-11-15T08:15:07;10.40;99.90
26326;DHT22;14032;52.510;7.342;2022-11-15T08:17:34;10.40;99.90
26326;DHT22;14032;52.510;7.342;2022-11-15T08:20:02;10.40;99.90
26326;DHT22;14032;52.510;7.342;2022-11-15T08:22:41;10.50;99.90
26326;DHT22;14032;52.510;7.342;2022-11-15T08:25:12;10.50;99.90
26326;DHT22;14032;52.510;7.342;2022-11-15T08:27:39;10.50;99.90
26326;DHT22;14032;52.510;7.342;2022-11-15T08:30:11;10.50;99.90
26326;DHT22;14032;52.510;7.342;2022-11-15T08:32:39;10.50;99.90
26326;DHT22;14032;52.510;7.342;2022-11-15T08:35:09;10.50;99.90
26326;DHT22;14032;52.510;7.342;2022-11-15T08:37:34;10.60;99.90
26326;DHT22;14032;52.510;7.342;2022-11-15T08:40:00;10.60;99.90
26326;DHT22;14032;52.510;7.342;2022-11-15T08:42:26;10.60;99.90
26326;DHT22;14032;52.510;7.342;2022-11-15T08:44:52;10.60;99.90
26326;DHT22;14032;52.510;7.342;2022-11-15T08:47:17;10.60;99.90
26326;DHT22;14032;52.510;7.342;2022-11-15T08:49:43;10.60;99.90
26326;DHT22;14032;52.510;7.342;2022-11-15T08:52:08;10.60;99.90
26326;DHT22;14032;52.510;7.342;2022-11-15T08:54:34;10.60;99.90
26326;DHT22;14032;52.510;7.342;2022-11-15T08:57:00;10.70;99.90
26326;DHT22;14032;52.510;7.342;2022-11-15T08:59:25;10.70;99.90
26326;DHT22;14032;52.510;7.342;2022-11-15T09:01:51;10.70;99.90
26326;DHT22;14032;52.510;7.342;2022-11-15T09:04:16;10.70;99.90
26326;DHT22;14032;52.510;7.342;2022-11-15T09:06:42;10.70;99.90
26326;DHT22;14032;52.510;7.342;2022-11-15T09:09:08;10.70;99.90
26326;DHT22;14032;52.510;7.342;2022-11-15T09:11:33;10.80;99.90
26326;DHT22;14032;52.510;7.342;2022-11-15T09:13:59;10.80;99.90
26326;DHT22;14032;52.510;7.342;2022-11-15T09:16:26;10.80;99.90
26326;DHT22;14032;52.510;7.342;2022-11-15T09:18:53;10.90;99.90
26326;DHT22;14032;52.510;7.342;2022-11-15T09:21:20;11.00;99.90
26326;DHT22;14032;52.510;7.342;2022-11-15T09:23:46;11.00;99.90
26326;DHT22;14032;52.510;7.342;2022-11-15T09:26:12;11.00;99.90
26326;DHT22;14032;52.510;7.342;2022-11-15T09:28:38;11.00;99.90
26326;DHT22;14032;52.510;7.342;2022-11-15T09:31:07;11.00;99.90
26326;DHT22;14032;52.510;7.342;2022-11-15T09:33:33;11.10;99.90
26326;DHT22;14032;52.510;7.342;2022-11-15T09:36:07;11.10;99.90
26326;DHT22;14032;52.510;7.342;2022-11-15T09:38:33;11.10;99.90
26326;DHT22;14032;52.510;7.342;2022-11-15T09:41:21;11.10;99.90
26326;DHT22;14032;52.510;7.342;2022-11-15T09:49:21;11.20;99.90
26326;DHT22;14032;52.510;7.342;2022-11-15T09:51:49;11.20;99.90
26326;DHT22;14032;52.510;7.342;2022-11-15T09:54:38;11.30;99.90
26326;DHT22;14032;52.510;7.342;2022-11-15T10:00:20;11.40;99.90
26326;DHT22;14032;52.510;7.342;2022-11-15T10:05:41;11.60;99.90
26326;DHT22;14032;52.510;7.342;2022-11-15T10:08:25;11.60;99.90
26326;DHT22;14032;52.510;7.342;2022-11-15T10:11:02;11.60;99.90
26326;DHT22;14032;52.510;7.342;2022-11-15T10:13:34;11.70;99.90
26326;DHT22;14032;52.510;7.342;2022-11-15T10:21:23;11.70;99.90
26326;DHT22;14032;52.510;7.342;2022-11-15T10:23:50;11.70;99.90
26326;DHT22;14032;52.510;7.342;2022-11-15T10:26:18;11.70;99.90
26326;DHT22;14032;52.510;7.342;2022-11-15T10:28:43;11.80;99.90
26326;DHT22;14032;52.510;7.342;2022-11-15T10:31:24;11.90;99.90
26326;DHT22;14032;52.510;7.342;2022-11-15T10:33:52;11.90;99.90
26326;DHT22;14032;52.510;7.342;2022-11-15T10:36:22;12.00;99.90
26326;DHT22;14032;52.510;7.342;2022-11-15T10:41:18;12.00;99.90
26326;DHT22;14032;52.510;7.342;2022-11-15T10:43:45;12.00;99.90
26326;DHT22;14032;52.510;7.342;2022-11-15T10:46:22;12.00;99.90
26326;DHT22;14032;52.510;7.342;2022-11-15T10:48:48;12.00;99.90
26326;DHT22;14032;52.510;7.342;2022-11-15T10:51:27;12.10;99.90
26326;DHT22;14032;52.510;7.342;2022-11-15T10:53:59;12.10;99.90
26326;DHT22;14032;52.510;7.342;2022-11-15T10:56:26;12.10;99.90
26326;DHT22;14032;52.510;7.342;2022-11-15T10:59:01;12.20;99.90
26326;DHT22;14032;52.510;7.342;2022-11-15T11:01:28;12.30;99.90
26326;DHT22;14032;52.510;7.342;2022-11-15T11:04:04;12.30;99.90
26326;DHT22;14032;52.510;7.342;2022-11-15T11:06:31;12.40;99.90
26326;DHT22;14032;52.510;7.342;2022-11-15T11:11:48;12.50;99.90
26326;DHT22;14032;52.510;7.342;2022-11-15T11:14:26;12.50;99.90
26326;DHT22;14032;52.510;7.342;2022-11-15T11:17:13;12.50;99.90
26326;DHT22;14032;52.510;7.342;2022-11-15T11:19:52;12.60;99.90
26326;DHT22;14032;52.510;7.342;2022-11-15T11:31:11;12.50;99.90
26326;DHT22;14032;52.510;7.342;2022-11-15T11:34:19;12.50;99.90
26326;DHT22;14032;52.510;7.342;2022-11-15T11:37:11;12.50;99.90
26326;DHT22;14032;52.510;7.342;2022-11-15T11:40:01;12.50;99.90
26326;DHT22;14032;52.510;7.342;2022-11-15T11:43:30;12.60;99.90
26326;DHT22;14032;52.510;7.342;2022-11-15T11:48:13;12.60;99.90
26326;DHT22;14032;52.510;7.342;2022-11-15T11:50:41;12.70;99.90
26326;DHT22;14032;52.510;7.342;2022-11-15T11:56:23;12.80;99.90
26326;DHT22;14032;52.510;7.342;2022-11-15T11:58:52;12.80;99.90
26326;DHT22;14032;52.510;7.342;2022-11-15T12:01:51;12.80;99.90
26326;DHT22;14032;52.510;7.342;2022-11-15T12:04:40;12.80;99.90
26326;DHT22;14032;52.510;7.342;2022-11-15T12:07:15;12.80;99.90
26326;DHT22;14032;52.510;7.342;2022-11-15T12:12:41;12.80;99.90
26326;DHT22;14032;52.510;7.342;2022-11-15T12:17:39;12.80;99.90
26326;DHT22;14032;52.510;7.342;2022-11-15T12:20:15;12.80;99.90
26326;DHT22;14032;52.510;7.342;2022-11-15T12:28:14;12.70;99.90
26326;DHT22;14032;52.510;7.342;2022-11-15T12:33:46;12.70;99.90
26326;DHT22;14032;52.510;7.342;2022-11-15T12:41:21;12.50;99.90
26326;DHT22;14032;52.510;7.342;2022-11-15T12:43:48;12.50;99.90
26326;DHT22;14032;52.510;7.342;2022-11-15T12:49:00;12.50;99.90
26326;DHT22;14032;52.510;7.342;2022-11-15T13:02:43;12.60;99.90
26326;DHT22;14032;52.510;7.342;2022-11-15T13:20:19;12.80;99.90
26326;DHT22;14032;52.510;7.342;2022-11-15T13:30:56;12.70;99.90
26326;DHT22;14032;52.510;7.342;2022-11-15T13:33:24;12.60;99.90
26326;DHT22;14032;52.510;7.342;2022-11-15T13:35:53;12.60;99.90
26326;DHT22;14032;52.510;7.342;2022-11-15T13:38:27;12.60;99.90
26326;DHT22;14032;52.510;7.342;2022-11-15T13:40:54;12.60;99.90
26326;DHT22;14032;52.510;7.342;2022-11-15T13:46:19;12.60;99.90
26326;DHT22;14032;52.510;7.342;2022-11-15T13:48:47;12.60;99.90
26326;DHT22;14032;52.510;7.342;2022-11-15T13:51:24;12.60;99.90
26326;DHT22;14032;52.510;7.342;2022-11-15T13:54:28;12.60;99.90
26326;DHT22;14032;52.510;7.342;2022-11-15T13:57:30;12.60;99.90
26326;DHT22;14032;52.510;7.342;2022-11-15T14:00:02;12.60;99.90
26326;DHT22;14032;52.510;7.342;2022-11-15T14:02:35;12.50;99.90
26326;DHT22;14032;52.510;7.342;2022-11-15T14:05:22;12.50;99.90
26326;DHT22;14032;52.510;7.342;2022-11-15T14:07:57;12.50;99.90
26326;DHT22;14032;52.510;7.342;2022-11-15T14:10:34;12.40;99.90
26326;DHT22;14032;52.510;7.342;2022-11-15T14:13:01;12.40;99.90
26326;DHT22;14032;52.510;7.342;2022-11-15T14:15:31;12.40;99.90
26326;DHT22;14032;52.510;7.342;2022-11-15T14:17:57;12.40;99.90
26326;DHT22;14032;52.510;7.342;2022-11-15T14:20:30;12.30;99.90
26326;DHT22;14032;52.510;7.342;2022-11-15T14:23:03;12.30;99.90
26326;DHT22;14032;52.510;7.342;2022-11-15T14:25:31;12.30;99.90
26326;DHT22;14032;52.510;7.342;2022-11-15T14:30:52;12.20;99.90
26326;DHT22;14032;52.510;7.342;2022-11-15T14:33:28;12.10;99.90
26326;DHT22;14032;52.510;7.342;2022-11-15T14:35:56;12.10;99.90
26326;DHT22;14032;52.510;7.342;2022-11-15T14:38:25;12.10;99.90
26326;DHT22;14032;52.510;7.342;2022-11-15T14:40:52;12.10;99.90
26326;DHT22;14032;52.510;7.342;2022-11-15T14:43:19;12.00;99.90
26326;DHT22;14032;52.510;7.342;2022-11-15T14:45:45;12.00;99.90
26326;DHT22;14032;52.510;7.342;2022-11-15T14:48:10;11.90;99.90
26326;DHT22;14032;52.510;7.342;2022-11-15T14:50:36;11.90;99.90
26326;DHT22;14032;52.510;7.342;2022-11-15T14:53:03;11.90;99.90
26326;DHT22;14032;52.510;7.342;2022-11-15T14:55:34;11.80;99.90
26326;DHT22;14032;52.510;7.342;2022-11-15T14:58:02;11.90;99.90
26326;DHT22;14032;52.510;7.342;2022-11-15T15:00:29;11.80;99.90
26326;DHT22;14032;52.510;7.342;2022-11-15T15:02:56;11.70;99.90
26326;DHT22;14032;52.510;7.342;2022-11-15T15:05:24;11.70;99.90
26326;DHT22;14032;52.510;7.342;2022-11-15T15:07:50;11.70;99.90
26326;DHT22;14032;52.510;7.342;2022-11-15T15:10:19;11.60;99.90
26326;DHT22;14032;52.510;7.342;2022-11-15T15:12:44;11.60;99.90
26326;DHT22;14032;52.510;7.342;2022-11-15T15:15:16;11.50;99.90
26326;DHT22;14032;52.510;7.342;2022-11-15T15:17:43;11.50;99.90
26326;DHT22;14032;52.510;7.342;2022-11-15T15:20:09;11.50;99.90
26326;DHT22;14032;52.510;7.342;2022-11-15T15:22:36;11.40;99.90
26326;DHT22;14032;52.510;7.342;2022-11-15T15:25:02;11.40;99.90
26326;DHT22;14032;52.510;7.342;2022-11-15T15:27:29;11.30;99.90
26326;DHT22;14032;52.510;7.342;2022-11-15T15:29:55;11.30;99.90
26326;DHT22;14032;52.510;7.342;2022-11-15T15:32:21;11.30;99.90
26326;DHT22;14032;52.510;7.342;2022-11-15T15:34:46;11.20;99.90
26326;DHT22;14032;52.510;7.342;2022-11-15T15:37:18;11.20;99.90
26326;DHT22;14032;52.510;7.342;2022-11-15T15:39:45;11.20;99.90
26326;DHT22;14032;52.510;7.342;2022-11-15T15:42:10;11.20;99.90
26326;DHT22;14032;52.510;7.342;2022-11-15T15:44:36;11.10;99.90
26326;DHT22;14032;52.510;7.342;2022-11-15T15:47:03;11.10;99.90
26326;DHT22;14032;52.510;7.342;2022-11-15T15:49:33;11.10;99.90
26326;DHT22;14032;52.510;7.342;2022-11-15T15:51:59;11.00;99.90
26326;DHT22;14032;52.510;7.342;2022-11-15T15:54:25;11.00;99.90
26326;DHT22;14032;52.510;7.342;2022-11-15T15:56:50;11.00;99.90
26326;DHT22;14032;52.510;7.342;2022-11-15T15:59:16;10.90;99.90
26326;DHT22;14032;52.510;7.342;2022-11-15T16:01:41;10.90;99.90
26326;DHT22;14032;52.510;7.342;2022-11-15T16:04:07;10.90;99.90
26326;DHT22;14032;52.510;7.342;2022-11-15T16:06:38;10.90;99.90
26326;DHT22;14032;52.510;7.342;2022-11-15T16:09:05;10.80;99.90
26326;DHT22;14032;52.510;7.342;2022-11-15T16:11:30;10.80;99.90
26326;DHT22;14032;52.510;7.342;2022-11-15T16:13:56;10.80;99.90
26326;DHT22;14032;52.510;7.342;2022-11-15T16:16:21;10.80;99.90
26326;DHT22;14032;52.510;7.342;2022-11-15T16:18:47;10.80;99.90
26326;DHT22;14032;52.510;7.342;2022-11-15T16:21:13;10.80;99.90
26326;DHT22;14032;52.510;7.342;2022-11-15T16:23:39;10.80;99.90
26326;DHT22;14032;52.510;7.342;2022-11-15T16:26:19;10.80;99.90
26326;DHT22;14032;52.510;7.342;2022-11-15T16:28:45;10.80;99.90
26326;DHT22;14032;52.510;7.342;2022-11-15T16:31:11;10.80;99.90
26326;DHT22;14032;52.510;7.342;2022-11-15T16:33:38;10.80;99.90
26326;DHT22;14032;52.510;7.342;2022-11-15T16:36:05;10.80;99.90
26326;DHT22;14032;52.510;7.342;2022-11-15T16:38:31;10.80;99.90
26326;DHT22;14032;52.510;7.342;2022-11-15T16:40:57;10.80;99.90
26326;DHT22;14032;52.510;7.342;2022-11-15T16:43:22;10.80;99.90
26326;DHT22;14032;52.510;7.342;2022-11-15T16:45:49;10.80;99.90
26326;DHT22;14032;52.510;7.342;2022-11-15T16:48:26;10.80;99.90
26326;DHT22;14032;52.510;7.342;2022-11-15T16:50:56;10.80;99.90
26326;DHT22;14032;52.510;7.342;2022-11-15T16:53:22;10.80;99.90
26326;DHT22;14032;52.510;7.342;2022-11-15T16:55:48;10.80;99.90
26326;DHT22;14032;52.510;7.342;2022-11-15T16:58:13;10.80;99.90
26326;DHT22;14032;52.510;7.342;2022-11-15T17:00:39;10.80;99.90
26326;DHT22;14032;52.510;7.342;2022-11-15T17:03:05;10.80;99.90
26326;DHT22;14032;52.510;7.342;2022-11-15T17:05:31;10.80;99.90
26326;DHT22;14032;52.510;7.342;2022-11-15T17:07:57;10.80;99.90
26326;DHT22;14032;52.510;7.342;2022-11-15T17:10:24;10.80;99.90
26326;DHT22;14032;52.510;7.342;2022-11-15T17:12:51;10.80;99.90
26326;DHT22;14032;52.510;7.342;2022-11-15T17:15:17;10.80;99.90
26326;DHT22;14032;52.510;7.342;2022-11-15T17:17:43;10.80;99.90
26326;DHT22;14032;52.510;7.342;2022-11-15T17:20:16;10.80;99.90
26326;DHT22;14032;52.510;7.342;2022-11-15T17:22:41;10.80;99.90
26326;DHT22;14032;52.510;7.342;2022-11-15T17:25:07;10.70;99.90
26326;DHT22;14032;52.510;7.342;2022-11-15T17:27:33;10.70;99.90
26326;DHT22;14032;52.510;7.342;2022-11-15T17:29:59;10.70;99.90
26326;DHT22;14032;52.510;7.342;2022-11-15T17:32:24;10.70;99.90
26326;DHT22;14032;52.510;7.342;2022-11-15T17:34:50;10.70;99.90
26326;DHT22;14032;52.510;7.342;2022-11-15T17:37:16;10.70;99.90
26326;DHT22;14032;52.510;7.342;2022-11-15T17:39:41;10.70;99.90
26326;DHT22;14032;52.510;7.342;2022-11-15T17:42:08;10.70;99.90
26326;DHT22;14032;52.510;7.342;2022-11-15T17:44:33;10.70;99.90
26326;DHT22;14032;52.510;7.342;2022-11-15T17:46:59;10.60;99.90
26326;DHT22;14032;52.510;7.342;2022-11-15T17:49:24;10.70;99.90
26326;DHT22;14032;52.510;7.342;2022-11-15T17:51:51;10.70;99.90
26326;DHT22;14032;52.510;7.342;2022-11-15T17:54:16;10.70;99.90